sensor_id;sensor_type;location;lat;lon;timestamp;pressure;altitude;pressure_sealevel;temperature;humidity
58975;BME280;44751;52.236;5.178;2023-08-24T00:00:52;101742.03;;;17.90;100.00
58975;BME280;44751;52.236;5.178;2023-08-24T00:03:19;101739.56;;;18.09;100.00
58975;BME280;44751;52.236;5.178;2023-08-24T00:05:47;101730.47;;;18.01;100.00
58975;BME280;44751;52.236;5.178;2023-08-24T00:08:14;101718.53;;;18.02;100.00
58975;BME280;44751;52.236;5.178;2023-08-24T00:10:44;101728.19;;;18.05;100.00
58975;BME280;44751;52.236;5.178;2023-08-24T00:13:14;101733.03;;;18.10;100.00
58975;BME280;44751;52.236;5.178;2023-08-24T00:15:41;101743.50;;;17.99;100.00
58975;BME280;44751;52.236;5.178;2023-08-24T00:18:08;101720.63;;;18.07;100.00
58975;BME280;44751;52.236;5.178;2023-08-24T00:20:34;101725.91;;;18.15;100.00
58975;BME280;44751;52.236;5.178;2023-08-24T00:23:07;101731.81;;;18.12;100.00
58975;BME280;44751;52.236;5.178;2023-08-24T00:25:33;101726.94;;;18.07;100.00
58975;BME280;44751;52.236;5.178;2023-08-24T00:28:00;101723.81;;;18.31;100.00
58975;BME280;44751;52.236;5.178;2023-08-24T00:30:27;101708.91;;;18.40;100.00
58975;BME280;44751;52.236;5.178;2023-08-24T00:33:01;101690.63;;;18.41;100.00
58975;BME280;44751;52.236;5.178;2023-08-24T00:35:28;101688.06;;;18.46;100.00
58975;BME280;44751;52.236;5.178;2023-08-24T00:37:55;101684.09;;;18.49;100.00
58975;BME280;44751;52.236;5.178;2023-08-24T00:40:22;101698.56;;;18.56;100.00
58975;BME280;44751;52.236;5.178;2023-08-24T00:42:50;101701.31;;;18.56;100.00
58975;BME280;44751;52.236;5.178;2023-08-24T00:45:27;101702.56;;;18.53;100.00
58975;BME280;44751;52.236;5.178;2023-08-24T00:47:53;101687.44;;;18.51;100.00
58975;BME280;44751;52.236;5.178;2023-08-24T00:50:20;101683.88;;;18.57;100.00
58975;BME280;44751;52.236;5.178;2023-08-24T00:52:47;101685.97;;;18.68;100.00
58975;BME280;44751;52.236;5.178;2023-08-24T00:55:22;101689.31;;;18.64;100.00
58975;BME280;44751;52.236;5.178;2023-08-24T00:57:49;101696.44;;;18.71;100.00
58975;BME280;44751;52.236;5.178;2023-08-24T01:00:17;101707.41;;;18.65;100.00
58975;BME280;44751;52.236;5.178;2023-08-24T01:02:44;101697.34;;;18.45;100.00
58975;BME280;44751;52.236;5.178;2023-08-24T01:05:10;101699.44;;;18.29;100.00
58975;BME280;44751;52.236;5.178;2023-08-24T01:07:41;101696.28;;;18.32;100.00
58975;BME280;44751;52.236;5.178;2023-08-24T01:10:09;101690.00;;;18.39;100.00
58975;BME280;44751;52.236;5.178;2023-08-24T01:16:09;101682.63;;;18.53;100.00
58975;BME280;44751;52.236;5.178;2023-08-24T01:18:38;101687.44;;;18.57;100.00
58975;BME280;44751;52.236;5.178;2023-08-24T01:21:08;101697.78;;;18.49;100.00
58975;BME280;44751;52.236;5.178;2023-08-24T01:23:43;101693.31;;;18.48;100.00
58975;BME280;44751;52.236;5.178;2023-08-24T01:26:17;101695.25;;;18.47;100.00
58975;BME280;44751;52.236;5.178;2023-08-24T01:28:45;101695.47;;;18.39;100.00
58975;BME280;44751;52.236;5.178;2023-08-24T01:31:16;101688.31;;;18.44;100.00
58975;BME280;44751;52.236;5.178;2023-08-24T01:33:44;101696.50;;;18.51;100.00
58975;BME280;44751;52.236;5.178;2023-08-24T01:36:13;101692.94;;;18.30;100.00
58975;BME280;44751;52.236;5.178;2023-08-24T01:38:45;101708.69;;;18.28;100.00
58975;BME280;44751;52.236;5.178;2023-08-24T01:41:20;101712.28;;;18.29;100.00
58975;BME280;44751;52.236;5.178;2023-08-24T01:43:54;101692.53;;;18.40;100.00
58975;BME280;44751;52.236;5.178;2023-08-24T01:46:26;101686.81;;;18.42;100.00
58975;BME280;44751;52.236;5.178;2023-08-24T01:48:54;101686.38;;;18.52;100.00
58975;BME280;44751;52.236;5.178;2023-08-24T01:51:23;101689.56;;;18.42;100.00
58975;BME280;44751;52.236;5.178;2023-08-24T01:53:55;101687.69;;;18.36;100.00
58975;BME280;44751;52.236;5.178;2023-08-24T01:56:23;101691.69;;;18.33;100.00
58975;BME280;44751;52.236;5.178;2023-08-24T01:58:50;101689.56;;;18.15;100.00
58975;BME280;44751;52.236;5.178;2023-08-24T02:01:17;101682.38;;;17.93;100.00
58975;BME280;44751;52.236;5.178;2023-08-24T02:03:43;101675.66;;;17.96;100.00
58975;BME280;44751;52.236;5.178;2023-08-24T02:06:15;101663.06;;;17.88;100.00
58975;BME280;44751;52.236;5.178;2023-08-24T02:08:42;101661.59;;;17.99;100.00
58975;BME280;44751;52.236;5.178;2023-08-24T02:11:10;101653.41;;;17.92;100.00
58975;BME280;44751;52.236;5.178;2023-08-24T02:13:36;101660.75;;;17.78;100.00
58975;BME280;44751;52.236;5.178;2023-08-24T02:16:08;101652.75;;;17.77;100.00
58975;BME280;44751;52.236;5.178;2023-08-24T02:18:35;101655.69;;;17.89;100.00
58975;BME280;44751;52.236;5.178;2023-08-24T02:21:07;101653.41;;;17.86;100.00
58975;BME280;44751;52.236;5.178;2023-08-24T02:23:35;101655.28;;;18.05;100.00
58975;BME280;44751;52.236;5.178;2023-08-24T02:26:02;101643.75;;;18.03;100.00
58975;BME280;44751;52.236;5.178;2023-08-24T02:28:35;101650.69;;;17.99;100.00
58975;BME280;44751;52.236;5.178;2023-08-24T02:31:03;101639.31;;;17.96;100.00
58975;BME280;44751;52.236;5.178;2023-08-24T02:33:31;101632.19;;;17.94;100.00
58975;BME280;44751;52.236;5.178;2023-08-24T02:35:58;101631.78;;;17.98;100.00
58975;BME280;44751;52.236;5.178;2023-08-24T02:38:27;101627.16;;;17.98;100.00
58975;BME280;44751;52.236;5.178;2023-08-24T02:41:01;101623.38;;;18.06;100.00
58975;BME280;44751;52.236;5.178;2023-08-24T02:43:28;101622.13;;;18.09;100.00
58975;BME280;44751;52.236;5.178;2023-08-24T02:46:00;101619.38;;;17.95;100.00
58975;BME280;44751;52.236;5.178;2023-08-24T02:48:26;101614.13;;;17.87;100.00
58975;BME280;44751;52.236;5.178;2023-08-24T02:50:53;101615.59;;;17.89;100.00
58975;BME280;44751;52.236;5.178;2023-08-24T02:53:19;101608.47;;;17.95;100.00
58975;BME280;44751;52.236;5.178;2023-08-24T02:55:46;101595.44;;;17.97;100.00
58975;BME280;44751;52.236;5.178;2023-08-24T02:58:13;101595.84;;;17.87;100.00
58975;BME280;44751;52.236;5.178;2023-08-24T03:00:39;101595.03;;;17.87;100.00
58975;BME280;44751;52.236;5.178;2023-08-24T03:03:09;101593.34;;;17.99;100.00
58975;BME280;44751;52.236;5.178;2023-08-24T03:05:35;101600.09;;;17.90;100.00
58975;BME280;44751;52.236;5.178;2023-08-24T03:08:02;101603.00;;;17.88;100.00
58975;BME280;44751;52.236;5.178;2023-08-24T03:10:30;101595.84;;;17.87;100.00
58975;BME280;44751;52.236;5.178;2023-08-24T03:12:56;101599.84;;;17.78;100.00
58975;BME280;44751;52.236;5.178;2023-08-24T03:15:23;101584.94;;;17.67;100.00
58975;BME280;44751;52.236;5.178;2023-08-24T03:17:51;101588.09;;;17.64;100.00
58975;BME280;44751;52.236;5.178;2023-08-24T03:20:18;101587.66;;;17.53;100.00
58975;BME280;44751;52.236;5.178;2023-08-24T03:22:45;101586.81;;;17.53;100.00
58975;BME280;44751;52.236;5.178;2023-08-24T03:25:15;101579.03;;;17.57;100.00
58975;BME280;44751;52.236;5.178;2023-08-24T03:27:41;101578.00;;;17.51;100.00
58975;BME280;44751;52.236;5.178;2023-08-24T03:30:09;101569.38;;;17.40;100.00
58975;BME280;44751;52.236;5.178;2023-08-24T03:32:36;101567.31;;;17.49;100.00
58975;BME280;44751;52.236;5.178;2023-08-24T03:35:03;101558.47;;;17.40;100.00
58975;BME280;44751;52.236;5.178;2023-08-24T03:37:32;101551.97;;;17.41;100.00
58975;BME280;44751;52.236;5.178;2023-08-24T03:40:03;101549.03;;;17.36;100.00
58975;BME280;44751;52.236;5.178;2023-08-24T03:42:31;101555.09;;;17.45;100.00
58975;BME280;44751;52.236;5.178;2023-08-24T03:44:59;101553.84;;;17.41;100.00
58975;BME280;44751;52.236;5.178;2023-08-24T03:47:26;101563.47;;;17.23;100.00
58975;BME280;44751;52.236;5.178;2023-08-24T03:50:02;101549.44;;;17.26;100.00
58975;BME280;44751;52.236;5.178;2023-08-24T03:52:29;101547.31;;;17.28;100.00
58975;BME280;44751;52.236;5.178;2023-08-24T03:54:56;101549.22;;;17.21;100.00
58975;BME280;44751;52.236;5.178;2023-08-24T03:57:23;101555.09;;;17.32;100.00
58975;BME280;44751;52.236;5.178;2023-08-24T04:00:00;101543.97;;;17.26;100.00
58975;BME280;44751;52.236;5.178;2023-08-24T04:02:29;101554.91;;;17.33;100.00
58975;BME280;44751;52.236;5.178;2023-08-24T04:04:55;101555.50;;;17.22;100.00
58975;BME280;44751;52.236;5.178;2023-08-24T04:07:22;101558.44;;;17.27;100.00
58975;BME280;44751;52.236;5.178;2023-08-24T04:09:52;101550.69;;;17.31;100.00
58975;BME280;44751;52.236;5.178;2023-08-24T04:12:19;101564.53;;;17.29;100.00
58975;BME280;44751;52.236;5.178;2023-08-24T04:14:47;101561.81;;;17.36;100.00
58975;BME280;44751;52.236;5.178;2023-08-24T04:17:14;101561.81;;;17.36;100.00
58975;BME280;44751;52.236;5.178;2023-08-24T04:19:48;101572.06;;;17.27;100.00
58975;BME280;44751;52.236;5.178;2023-08-24T04:22:15;101557.00;;;17.31;100.00
58975;BME280;44751;52.236;5.178;2023-08-24T04:24:42;101554.69;;;17.35;100.00
58975;BME280;44751;52.236;5.178;2023-08-24T04:27:08;101558.03;;;17.30;100.00
58975;BME280;44751;52.236;5.178;2023-08-24T04:29:35;101565.41;;;17.36;100.00
58975;BME280;44751;52.236;5.178;2023-08-24T04:32:01;101566.41;;;17.28;100.00
58975;BME280;44751;52.236;5.178;2023-08-24T04:34:29;101560.75;;;17.30;100.00
58975;BME280;44751;52.236;5.178;2023-08-24T04:36:58;101557.22;;;17.36;100.00
58975;BME280;44751;52.236;5.178;2023-08-24T04:39:26;101565.59;;;17.41;100.00
58975;BME280;44751;52.236;5.178;2023-08-24T04:41:54;101553.84;;;17.41;100.00
58975;BME280;44751;52.236;5.178;2023-08-24T04:44:22;101552.63;;;17.44;100.00
58975;BME280;44751;52.236;5.178;2023-08-24T04:46:49;101562.88;;;17.41;100.00
58975;BME280;44751;52.236;5.178;2023-08-24T04:49:15;101557.41;;;17.41;100.00
58975;BME280;44751;52.236;5.178;2023-08-24T04:51:42;101559.94;;;17.36;100.00
58975;BME280;44751;52.236;5.178;2023-08-24T04:54:08;101556.38;;;17.42;100.00
58975;BME280;44751;52.236;5.178;2023-08-24T04:56:35;101558.28;;;17.42;100.00
58975;BME280;44751;52.236;5.178;2023-08-24T04:59:08;101549.25;;;17.41;100.00
58975;BME280;44751;52.236;5.178;2023-08-24T05:01:35;101559.94;;;17.36;100.00
58975;BME280;44751;52.236;5.178;2023-08-24T05:04:02;101560.16;;;17.35;100.00
58975;BME280;44751;52.236;5.178;2023-08-24T05:10:12;101544.00;;;17.47;100.00
58975;BME280;44751;52.236;5.178;2023-08-24T18:48:21;100824.00;;;22.78;100.00
58975;BME280;44751;52.236;5.178;2023-08-24T18:50:48;100831.69;;;22.76;100.00
58975;BME280;44751;52.236;5.178;2023-08-24T18:53:14;100840.97;;;22.69;100.00
58975;BME280;44751;52.236;5.178;2023-08-24T18:55:41;100852.56;;;22.72;100.00
58975;BME280;44751;52.236;5.178;2023-08-24T18:58:07;100841.31;;;22.73;100.00
58975;BME280;44751;52.236;5.178;2023-08-24T19:00:37;100845.69;;;22.74;100.00
58975;BME280;44751;52.236;5.178;2023-08-24T19:03:04;100832.78;;;22.75;100.00
58975;BME280;44751;52.236;5.178;2023-08-24T19:05:30;100825.56;;;22.68;100.00
58975;BME280;44751;52.236;5.178;2023-08-24T19:07:58;100834.00;;;22.56;100.00
58975;BME280;44751;52.236;5.178;2023-08-24T19:10:24;100844.22;;;22.61;100.00
58975;BME280;44751;52.236;5.178;2023-08-24T19:12:50;100851.38;;;22.62;100.00
58975;BME280;44751;52.236;5.178;2023-08-24T19:15:17;100844.28;;;22.66;100.00
58975;BME280;44751;52.236;5.178;2023-08-24T19:17:43;100868.44;;;22.64;100.00
58975;BME280;44751;52.236;5.178;2023-08-24T19:20:10;100870.06;;;22.60;100.00
58975;BME280;44751;52.236;5.178;2023-08-24T19:22:36;100857.69;;;22.63;100.00
58975;BME280;44751;52.236;5.178;2023-08-24T19:25:03;100857.69;;;22.63;100.00
58975;BME280;44751;52.236;5.178;2023-08-24T19:27:31;100857.97;;;22.61;100.00
58975;BME280;44751;52.236;5.178;2023-08-24T19:29:57;100862.31;;;22.57;100.00
58975;BME280;44751;52.236;5.178;2023-08-24T19:32:24;100850.94;;;22.48;100.00
58975;BME280;44751;52.236;5.178;2023-08-24T19:34:50;100843.22;;;22.45;100.00
58975;BME280;44751;52.236;5.178;2023-08-24T19:37:17;100834.56;;;22.31;100.00
58975;BME280;44751;52.236;5.178;2023-08-24T19:39:43;100819.97;;;22.30;100.00
58975;BME280;44751;52.236;5.178;2023-08-24T19:42:09;100827.66;;;22.28;100.00
58975;BME280;44751;52.236;5.178;2023-08-24T19:44:36;100813.84;;;22.23;100.00
58975;BME280;44751;52.236;5.178;2023-08-24T19:47:03;100796.50;;;22.17;100.00
58975;BME280;44751;52.236;5.178;2023-08-24T19:49:30;100778.56;;;22.10;100.00
58975;BME280;44751;52.236;5.178;2023-08-24T19:51:56;100790.44;;;22.15;100.00
58975;BME280;44751;52.236;5.178;2023-08-24T19:54:23;100795.56;;;22.06;100.00
58975;BME280;44751;52.236;5.178;2023-08-24T19:56:49;100768.78;;;21.97;100.00
58975;BME280;44751;52.236;5.178;2023-08-24T19:59:16;100770.56;;;22.08;100.00
58975;BME280;44751;52.236;5.178;2023-08-24T20:01:42;100752.81;;;22.16;100.00
58975;BME280;44751;52.236;5.178;2023-08-24T20:04:09;100773.19;;;22.20;100.00
58975;BME280;44751;52.236;5.178;2023-08-24T20:06:35;100762.91;;;22.10;100.00
58975;BME280;44751;52.236;5.178;2023-08-24T20:09:02;100766.72;;;22.09;100.00
58975;BME280;44751;52.236;5.178;2023-08-24T20:11:31;100776.72;;;21.93;100.00
58975;BME280;44751;52.236;5.178;2023-08-24T20:13:58;100788.28;;;21.95;100.00
58975;BME280;44751;52.236;5.178;2023-08-24T20:16:25;100791.50;;;21.87;100.00
58975;BME280;44751;52.236;5.178;2023-08-24T20:18:52;100800.78;;;21.80;100.00
58975;BME280;44751;52.236;5.178;2023-08-24T20:21:18;100806.94;;;21.71;100.00
58975;BME280;44751;52.236;5.178;2023-08-24T20:23:45;100797.81;;;21.65;100.00
58975;BME280;44751;52.236;5.178;2023-08-24T20:26:11;100811.59;;;21.70;100.00
58975;BME280;44751;52.236;5.178;2023-08-24T20:28:39;100827.75;;;21.66;100.00
58975;BME280;44751;52.236;5.178;2023-08-24T20:31:06;100847.66;;;21.57;100.00
58975;BME280;44751;52.236;5.178;2023-08-24T20:33:33;100858.13;;;21.60;100.00
58975;BME280;44751;52.236;5.178;2023-08-24T20:36:00;100856.28;;;21.43;100.00
58975;BME280;44751;52.236;5.178;2023-08-24T20:38:28;100856.53;;;21.41;100.00
58975;BME280;44751;52.236;5.178;2023-08-24T20:40:55;100858.59;;;21.34;100.00
58975;BME280;44751;52.236;5.178;2023-08-24T20:43:22;100854.84;;;21.40;100.00
58975;BME280;44751;52.236;5.178;2023-08-24T20:45:48;100855.53;;;21.31;100.00
58975;BME280;44751;52.236;5.178;2023-08-24T20:48:15;100856.69;;;21.35;100.00
58975;BME280;44751;52.236;5.178;2023-08-24T20:50:42;100851.78;;;21.37;100.00
58975;BME280;44751;52.236;5.178;2023-08-24T20:53:09;100849.88;;;21.37;100.00
58975;BME280;44751;52.236;5.178;2023-08-24T20:55:36;100846.78;;;21.34;100.00
58975;BME280;44751;52.236;5.178;2023-08-24T20:58:03;100862.19;;;21.35;100.00
58975;BME280;44751;52.236;5.178;2023-08-24T21:00:29;100857.44;;;21.30;100.00
58975;BME280;44751;52.236;5.178;2023-08-24T21:02:56;100853.84;;;21.29;100.00
58975;BME280;44751;52.236;5.178;2023-08-24T21:05:26;100839.56;;;21.27;100.00
58975;BME280;44751;52.236;5.178;2023-08-24T21:07:53;100842.22;;;21.22;100.00
58975;BME280;44751;52.236;5.178;2023-08-24T21:10:19;100855.19;;;21.27;100.00
58975;BME280;44751;52.236;5.178;2023-08-24T21:12:46;100860.94;;;21.25;100.00
58975;BME280;44751;52.236;5.178;2023-08-24T21:15:12;100850.63;;;21.15;100.00
58975;BME280;44751;52.236;5.178;2023-08-24T21:17:39;100841.59;;;21.15;100.00
58975;BME280;44751;52.236;5.178;2023-08-24T21:20:06;100814.91;;;21.10;100.00
58975;BME280;44751;52.236;5.178;2023-08-24T21:22:33;100810.25;;;21.11;100.00
58975;BME280;44751;52.236;5.178;2023-08-24T21:25:00;100795.53;;;21.17;100.00
58975;BME280;44751;52.236;5.178;2023-08-24T21:27:28;100790.28;;;21.15;100.00
58975;BME280;44751;52.236;5.178;2023-08-24T21:29:56;100778.72;;;21.31;100.00
58975;BME280;44751;52.236;5.178;2023-08-24T21:32:23;100750.09;;;21.26;100.00
58975;BME280;44751;52.236;5.178;2023-08-24T21:34:51;100745.38;;;21.22;100.00
58975;BME280;44751;52.236;5.178;2023-08-24T21:37:17;100742.16;;;21.25;100.00
58975;BME280;44751;52.236;5.178;2023-08-24T21:39:44;100739.31;;;21.20;100.00
58975;BME280;44751;52.236;5.178;2023-08-24T21:42:10;100771.72;;;21.23;100.00
58975;BME280;44751;52.236;5.178;2023-08-24T21:44:40;100803.91;;;21.27;100.00
58975;BME280;44751;52.236;5.178;2023-08-24T21:47:11;100823.88;;;21.06;100.00
58975;BME280;44751;52.236;5.178;2023-08-24T21:49:37;100811.75;;;21.01;100.00
58975;BME280;44751;52.236;5.178;2023-08-24T21:52:04;100824.91;;;20.99;100.00
58975;BME280;44751;52.236;5.178;2023-08-24T21:54:33;100837.03;;;21.03;100.00
58975;BME280;44751;52.236;5.178;2023-08-24T21:57:03;100819.72;;;21.03;100.00
58975;BME280;44751;52.236;5.178;2023-08-24T21:59:30;100834.84;;;21.06;100.00
58975;BME280;44751;52.236;5.178;2023-08-24T22:01:56;100830.75;;;21.08;100.00
58975;BME280;44751;52.236;5.178;2023-08-24T22:04:23;100835.19;;;21.09;100.00
58975;BME280;44751;52.236;5.178;2023-08-24T22:06:52;100833.78;;;21.07;100.00
58975;BME280;44751;52.236;5.178;2023-08-24T22:09:21;100832.03;;;21.00;100.00
58975;BME280;44751;52.236;5.178;2023-08-24T22:11:49;100831.78;;;21.02;100.00
58975;BME280;44751;52.236;5.178;2023-08-24T22:14:15;100839.16;;;21.01;100.00
58975;BME280;44751;52.236;5.178;2023-08-24T22:16:42;100834.59;;;20.90;100.00
58975;BME280;44751;52.236;5.178;2023-08-24T22:19:11;100827.09;;;20.85;100.00
58975;BME280;44751;52.236;5.178;2023-08-24T22:21:39;100837.75;;;20.64;100.00
58975;BME280;44751;52.236;5.178;2023-08-24T22:24:06;100832.34;;;20.70;100.00
58975;BME280;44751;52.236;5.178;2023-08-24T22:26:33;100836.47;;;20.72;100.00
58975;BME280;44751;52.236;5.178;2023-08-24T22:28:59;100836.31;;;20.79;100.00
58975;BME280;44751;52.236;5.178;2023-08-24T22:31:43;100832.75;;;20.79;100.00
58975;BME280;44751;52.236;5.178;2023-08-24T22:34:10;100827.41;;;20.72;100.00
58975;BME280;44751;52.236;5.178;2023-08-24T22:36:36;100827.94;;;20.69;100.00
58975;BME280;44751;52.236;5.178;2023-08-24T22:39:11;100835.00;;;20.64;100.00
58975;BME280;44751;52.236;5.178;2023-08-24T22:41:38;100832.25;;;20.64;100.00
58975;BME280;44751;52.236;5.178;2023-08-24T22:44:05;100824.75;;;20.60;100.00
58975;BME280;44751;52.236;5.178;2023-08-24T22:46:31;100832.25;;;20.64;100.00
58975;BME280;44751;52.236;5.178;2023-08-24T22:48:58;100823.09;;;20.59;100.00
58975;BME280;44751;52.236;5.178;2023-08-24T22:51:31;100823.34;;;20.57;100.00
58975;BME280;44751;52.236;5.178;2023-08-24T22:54:00;100823.28;;;20.69;100.00
58975;BME280;44751;52.236;5.178;2023-08-24T22:56:28;100821.13;;;20.71;100.00
58975;BME280;44751;52.236;5.178;2023-08-24T22:58:54;100811.13;;;20.65;100.00
58975;BME280;44751;52.236;5.178;2023-08-24T23:01:21;100821.44;;;20.75;100.00
58975;BME280;44751;52.236;5.178;2023-08-24T23:03:48;100818.03;;;20.68;100.00
58975;BME280;44751;52.236;5.178;2023-08-24T23:06:18;100812.81;;;20.66;100.00
58975;BME280;44751;52.236;5.178;2023-08-24T23:08:46;100823.78;;;20.66;100.00
58975;BME280;44751;52.236;5.178;2023-08-24T23:11:15;100820.53;;;20.69;100.00
58975;BME280;44751;52.236;5.178;2023-08-24T23:13:42;100830.81;;;20.62;100.00
58975;BME280;44751;52.236;5.178;2023-08-24T23:16:08;100819.84;;;20.62;100.00
58975;BME280;44751;52.236;5.178;2023-08-24T23:18:36;100821.44;;;20.58;100.00
58975;BME280;44751;52.236;5.178;2023-08-24T23:21:02;100827.50;;;20.60;100.00
58975;BME280;44751;52.236;5.178;2023-08-24T23:23:29;100815.81;;;20.64;100.00
58975;BME280;44751;52.236;5.178;2023-08-24T23:25:58;100824.53;;;20.79;100.00
58975;BME280;44751;52.236;5.178;2023-08-24T23:28:24;100818.16;;;20.90;100.00
58975;BME280;44751;52.236;5.178;2023-08-24T23:30:51;100818.13;;;20.73;100.00
58975;BME280;44751;52.236;5.178;2023-08-24T23:33:17;100814.72;;;20.66;100.00
58975;BME280;44751;52.236;5.178;2023-08-24T23:35:44;100817.53;;;20.54;100.00
58975;BME280;44751;52.236;5.178;2023-08-24T23:38:11;100814.03;;;20.58;100.00
58975;BME280;44751;52.236;5.178;2023-08-24T23:40:46;100818.03;;;20.68;100.00
58975;BME280;44751;52.236;5.178;2023-08-24T23:43:13;100816.06;;;20.63;100.00
58975;BME280;44751;52.236;5.178;2023-08-24T23:45:39;100817.44;;;20.48;100.00
58975;BME280;44751;52.236;5.178;2023-08-24T23:48:06;100812.16;;;20.59;100.00
58975;BME280;44751;52.236;5.178;2023-08-24T23:50:35;100826.25;;;20.68;100.00
58975;BME280;44751;52.236;5.178;2023-08-24T23:53:02;100828.75;;;20.69;100.00
58975;BME280;44751;52.236;5.178;2023-08-24T23:55:30;100821.63;;;20.68;100.00
58975;BME280;44751;52.236;5.178;2023-08-24T23:57:57;100820.28;;;20.71;100.00
